createdAt,value
2023-04-25T00:01:53.603Z,7.37
2023-04-25T00:04:22.784Z,7.73
2023-04-25T00:06:53.302Z,10.50
2023-04-25T00:09:23.237Z,7.90
2023-04-25T00:11:53.074Z,7.30
2023-04-25T00:14:19.976Z,10.57
2023-04-25T00:16:52.894Z,11.10
2023-04-25T00:19:21.990Z,7.80
2023-04-25T00:21:51.408Z,7.13
2023-04-25T00:24:22.926Z,6.70
2023-04-25T00:26:49.802Z,7.30
2023-04-25T00:29:16.638Z,7.97
2023-04-25T00:31:43.671Z,6.30
2023-04-25T00:34:10.604Z,11.83
2023-04-25T00:36:38.710Z,8.60
2023-04-25T00:39:08.092Z,7.73
2023-04-25T00:41:35.133Z,12.43
2023-04-25T00:44:03.963Z,7.37
2023-04-25T00:46:32.309Z,16.87
2023-04-25T00:48:59.251Z,6.80
2023-04-25T00:51:27.547Z,7.97
2023-04-25T00:53:54.942Z,11.60
2023-04-25T00:56:27.079Z,8.57
2023-04-25T00:58:58.136Z,11.07
2023-04-25T01:01:25.664Z,11.43
2023-04-25T01:03:55.350Z,8.40
2023-04-25T01:06:23.485Z,10.40
2023-04-25T01:08:50.555Z,12.70
2023-04-25T01:11:17.452Z,9.77
2023-04-25T01:13:47.778Z,8.50
2023-04-25T01:16:17.044Z,8.83
2023-04-25T01:18:44.693Z,10.70
2023-04-25T01:21:14.415Z,15.00
2023-04-25T01:23:44.449Z,12.70
2023-04-25T01:26:15.060Z,7.60
2023-04-25T01:32:46.185Z,8.40
2023-04-25T01:35:15.917Z,8.43
2023-04-25T01:37:44.438Z,7.67
2023-04-25T01:40:14.252Z,15.03
2023-04-25T01:42:43.346Z,24.47
2023-04-25T01:45:13.170Z,20.70
2023-04-25T01:47:41.191Z,13.67
2023-04-25T01:50:09.621Z,18.03
2023-04-25T01:52:40.061Z,15.20
2023-04-25T01:55:07.587Z,24.03
2023-04-25T01:57:36.730Z,21.27
2023-04-25T02:00:11.131Z,29.17
2023-04-25T02:02:40.462Z,19.87
2023-04-25T02:05:10.748Z,37.87
2023-04-25T02:07:38.536Z,19.00
2023-04-25T02:14:09.570Z,31.33
2023-04-25T02:16:36.905Z,22.90
2023-04-25T02:19:06.177Z,33.03
2023-04-25T02:21:37.994Z,31.40
2023-04-25T02:24:12.168Z,27.93
2023-04-25T02:26:40.385Z,38.83
2023-04-25T02:29:12.801Z,26.47
2023-04-25T02:31:44.664Z,28.00
2023-04-25T02:34:11.581Z,23.80
2023-04-25T02:36:38.549Z,33.03
2023-04-25T02:39:10.498Z,38.90
2023-04-25T02:41:37.344Z,26.37
2023-04-25T02:44:07.825Z,22.83
2023-04-25T02:46:39.843Z,32.13
2023-04-25T02:49:08.075Z,20.80
2023-04-25T02:51:35.048Z,33.87
2023-04-25T02:54:05.840Z,25.23
2023-04-25T02:56:32.834Z,23.03
2023-04-25T02:59:00.397Z,33.03
2023-04-25T03:01:30.648Z,38.97
2023-04-25T03:03:59.813Z,19.53
2023-04-25T03:06:26.869Z,43.83
2023-04-25T03:08:57.108Z,40.30
2023-04-25T03:11:26.342Z,31.20
2023-04-25T03:13:53.437Z,18.07
2023-04-25T03:16:22.006Z,32.60
2023-04-25T03:18:51.803Z,25.87
2023-04-25T03:21:21.217Z,29.73
2023-04-25T03:23:49.517Z,39.67
2023-04-25T03:26:16.562Z,31.20
2023-04-25T03:28:43.515Z,43.03
2023-04-25T03:31:11.709Z,27.20
2023-04-25T03:33:41.624Z,44.87
2023-04-25T03:36:09.244Z,37.07
2023-04-25T03:38:37.997Z,37.00
2023-04-25T03:41:07.128Z,24.33
2023-04-25T03:43:38.528Z,35.70
2023-04-25T03:46:05.792Z,25.33
2023-04-25T03:48:35.178Z,39.57
2023-04-25T03:51:02.133Z,28.23
2023-04-25T03:53:31.611Z,37.53
2023-04-25T03:55:59.936Z,38.20
2023-04-25T03:58:26.941Z,31.37
2023-04-25T04:00:56.129Z,32.50
2023-04-25T04:03:23.236Z,34.20
2023-04-25T04:05:51.614Z,34.97
2023-04-25T04:08:18.687Z,33.40
2023-04-25T04:10:45.664Z,49.33
2023-04-25T04:13:12.641Z,30.03
2023-04-25T04:15:42.240Z,31.67
2023-04-25T04:18:09.317Z,36.80
2023-04-25T04:20:36.330Z,24.47
2023-04-25T04:23:06.593Z,29.77
2023-04-25T04:25:38.102Z,31.50
2023-04-25T04:28:06.010Z,30.17
2023-04-25T04:30:37.292Z,31.97
2023-04-25T04:33:04.522Z,32.17
2023-04-25T04:35:31.730Z,34.10
2023-04-25T04:38:01.636Z,33.63
2023-04-25T04:40:28.816Z,34.10
2023-04-25T04:43:00.289Z,38.53
2023-04-25T04:45:28.917Z,32.57
2023-04-25T04:47:58.869Z,21.73
2023-04-25T04:50:25.993Z,14.77
2023-04-25T04:52:56.265Z,33.77
2023-04-25T04:55:23.177Z,35.67
2023-04-25T04:57:55.918Z,27.30
2023-04-25T05:00:23.022Z,28.10
2023-04-25T05:02:50.209Z,25.87
2023-04-25T05:05:17.537Z,28.23
2023-04-25T05:07:44.743Z,22.03
2023-04-25T05:10:14.406Z,28.20
2023-04-25T05:12:41.417Z,28.67
2023-04-25T05:15:08.943Z,26.53
2023-04-25T05:17:38.553Z,20.00
2023-04-25T05:20:10.540Z,25.60
2023-04-25T05:22:37.749Z,29.00
2023-04-25T05:25:05.683Z,20.90
2023-04-25T05:27:32.745Z,14.33
2023-04-25T05:29:59.905Z,19.73
2023-04-25T05:32:28.263Z,30.17
2023-04-25T05:34:56.109Z,36.87
2023-04-25T05:37:25.476Z,33.53
2023-04-25T05:39:52.522Z,16.17
2023-04-25T05:42:19.546Z,28.73
2023-04-25T05:44:48.957Z,21.73
2023-04-25T05:47:16.226Z,30.87
2023-04-25T05:49:45.784Z,15.67
2023-04-25T05:52:12.841Z,25.07
2023-04-25T05:54:40.020Z,22.50
2023-04-25T05:57:07.480Z,27.10
2023-04-25T05:59:34.612Z,30.13
2023-04-25T06:02:01.995Z,28.93
2023-04-25T06:04:29.408Z,18.17
2023-04-25T06:06:56.708Z,27.30
2023-04-25T06:09:26.671Z,31.00
2023-04-25T06:11:53.768Z,16.23
2023-04-25T06:14:20.908Z,24.50
2023-04-25T06:16:47.914Z,27.33
2023-04-25T06:19:14.890Z,20.53
2023-04-25T06:21:47.053Z,17.50
2023-04-25T06:24:14.195Z,25.70
2023-04-25T06:26:41.181Z,11.83
2023-04-25T06:29:08.231Z,22.73
2023-04-25T06:31:35.582Z,26.47
2023-04-25T06:34:05.313Z,21.50
2023-04-25T06:36:36.974Z,15.63
2023-04-25T06:39:06.973Z,16.23
2023-04-25T06:41:34.018Z,19.63
2023-04-25T06:44:03.554Z,14.90
2023-04-25T06:46:32.913Z,20.57
2023-04-25T06:49:02.580Z,15.73
2023-04-25T06:51:31.880Z,19.17
2023-04-25T06:53:59.123Z,15.57
2023-04-25T06:56:26.248Z,19.60
2023-04-25T06:58:53.511Z,9.13
2023-04-25T07:01:20.700Z,21.13
2023-04-25T07:03:48.140Z,9.23
2023-04-25T07:06:15.604Z,17.97
2023-04-25T07:08:42.725Z,16.20
2023-04-25T07:11:12.246Z,28.93
2023-04-25T07:13:41.670Z,18.83
2023-04-25T07:16:08.760Z,16.77
2023-04-25T07:18:36.046Z,19.63
2023-04-25T07:21:05.713Z,14.13
2023-04-25T07:23:32.823Z,10.73
2023-04-25T07:25:59.998Z,15.27
2023-04-25T07:28:26.994Z,20.60
2023-04-25T07:30:53.979Z,10.70
2023-04-25T07:33:24.426Z,25.07
2023-04-25T07:35:51.546Z,21.33
2023-04-25T07:38:18.671Z,13.53
2023-04-25T07:40:46.202Z,21.50
2023-04-25T07:43:17.976Z,20.83
2023-04-25T07:45:49.267Z,29.60
2023-04-25T07:48:19.946Z,19.67
2023-04-25T07:50:49.534Z,24.63
2023-04-25T07:53:19.294Z,12.27
2023-04-25T07:55:46.556Z,8.90
2023-04-25T07:58:22.254Z,14.87
2023-04-25T08:00:50.000Z,15.20
2023-04-25T08:03:20.119Z,14.97
2023-04-25T08:05:47.580Z,8.03
2023-04-25T08:08:17.169Z,8.10
2023-04-25T08:10:44.411Z,17.83
2023-04-25T08:13:11.568Z,13.70
2023-04-25T08:15:42.183Z,16.03
2023-04-25T08:18:09.594Z,10.57
2023-04-25T08:20:36.973Z,11.03
2023-04-25T08:23:04.249Z,12.10
2023-04-25T08:25:36.814Z,8.83
2023-04-25T08:28:07.070Z,9.13
2023-04-25T08:30:34.316Z,14.60
2023-04-25T08:33:04.484Z,7.93
2023-04-25T08:35:34.226Z,8.53
2023-04-25T08:38:02.232Z,7.70
2023-04-25T08:40:31.353Z,7.53
2023-04-25T08:42:59.436Z,13.43
2023-04-25T08:45:33.509Z,2.90
2023-04-25T08:48:02.063Z,8.23
2023-04-25T08:50:29.647Z,8.40
2023-04-25T08:53:02.775Z,11.17
2023-04-25T08:55:31.008Z,15.20
2023-04-25T08:58:03.864Z,13.17
2023-04-25T09:00:36.170Z,5.00
2023-04-25T09:03:04.463Z,10.70
2023-04-25T09:05:34.566Z,10.57
2023-04-25T09:08:03.295Z,6.93
2023-04-25T09:13:27.421Z,12.40
2023-04-25T09:16:02.171Z,12.83
2023-04-25T09:18:31.594Z,6.23
2023-04-25T09:21:14.371Z,21.27
2023-04-25T09:23:50.821Z,9.13
2023-04-25T09:26:21.062Z,5.73
2023-04-25T09:28:53.037Z,11.40
2023-04-25T09:31:27.354Z,7.47
2023-04-25T09:34:02.508Z,7.90
2023-04-25T09:36:31.808Z,8.63
2023-04-25T09:39:07.917Z,7.50
2023-04-25T09:41:44.604Z,1.90
2023-04-25T09:44:14.490Z,9.03
2023-04-25T09:46:44.079Z,9.10
2023-04-25T09:49:16.358Z,3.63
2023-04-25T09:51:43.441Z,5.43
2023-04-25T09:54:12.993Z,9.50
2023-04-25T09:56:40.187Z,6.33
2023-04-25T09:59:11.228Z,5.80
2023-04-25T10:01:42.593Z,6.23
2023-04-25T10:04:14.802Z,3.20
2023-04-25T10:06:44.220Z,8.67
2023-04-25T10:09:18.929Z,10.10
2023-04-25T10:11:54.621Z,5.30
2023-04-25T10:14:25.331Z,8.67
2023-04-25T10:16:56.609Z,3.97
2023-04-25T10:19:27.566Z,3.37
2023-04-25T10:22:36.611Z,5.73
2023-04-25T10:25:07.649Z,7.47
2023-04-25T10:27:36.141Z,3.53
2023-04-25T10:30:13.873Z,6.13
2023-04-25T10:32:44.888Z,1.80
2023-04-25T10:35:31.505Z,11.10
2023-04-25T10:38:01.111Z,2.50
2023-04-25T10:40:31.460Z,7.13
2023-04-25T10:43:41.441Z,10.07
2023-04-25T10:46:25.683Z,9.83
2023-04-25T10:48:56.235Z,7.20
2023-04-25T10:51:51.543Z,8.07
2023-04-25T10:54:23.260Z,7.47
2023-04-25T10:56:54.395Z,5.33
2023-04-25T10:59:26.273Z,7.20
2023-04-25T11:01:55.990Z,8.93
2023-04-25T11:04:33.081Z,7.77
2023-04-25T11:07:25.244Z,1.87
2023-04-25T11:09:55.315Z,6.10
2023-04-25T11:12:22.409Z,5.23
2023-04-25T11:14:49.729Z,5.97
2023-04-25T11:17:19.858Z,5.10
2023-04-25T11:19:50.578Z,8.50
2023-04-25T11:22:17.665Z,2.97
2023-04-25T11:24:45.148Z,11.93
2023-04-25T11:27:12.290Z,8.33
2023-04-25T11:29:42.167Z,5.23
2023-04-25T11:32:09.518Z,2.77
2023-04-25T11:34:39.099Z,7.00
2023-04-25T11:37:07.359Z,5.47
2023-04-25T11:39:34.365Z,8.93
2023-04-25T11:42:02.561Z,3.10
2023-04-25T11:44:31.747Z,8.20
2023-04-25T11:46:58.823Z,15.40
2023-04-25T11:49:32.545Z,2.50
2023-04-25T11:51:59.989Z,4.97
2023-04-25T11:54:27.367Z,5.43
2023-04-25T11:56:54.637Z,4.57
2023-04-25T11:59:28.193Z,7.07
2023-04-25T12:01:55.306Z,4.20
2023-04-25T12:04:25.661Z,2.63
2023-04-25T12:06:56.326Z,7.43
2023-04-25T12:09:34.625Z,4.40
2023-04-25T12:12:06.996Z,6.60
2023-04-25T12:14:38.394Z,6.73
2023-04-25T12:17:09.184Z,3.07
2023-04-25T12:19:41.816Z,4.23
2023-04-25T12:22:25.021Z,2.50
2023-04-25T12:24:55.297Z,2.20
2023-04-25T12:27:22.632Z,3.80
2023-04-25T12:29:55.834Z,6.33
2023-04-25T12:32:23.682Z,4.10
2023-04-25T12:34:51.112Z,5.60
2023-04-25T12:37:20.772Z,10.17
2023-04-25T12:39:50.469Z,6.37
2023-04-25T12:42:20.173Z,3.37
2023-04-25T12:44:49.534Z,7.70
2023-04-25T12:47:16.910Z,11.00
2023-04-25T12:49:43.886Z,6.03
2023-04-25T12:52:11.013Z,10.23
2023-04-25T12:54:38.028Z,1.70
2023-04-25T12:57:09.868Z,6.40
2023-04-25T12:59:39.346Z,5.10
2023-04-25T13:02:06.788Z,8.70
2023-04-25T13:04:34.070Z,6.67
2023-04-25T13:07:08.278Z,2.67
2023-04-25T13:09:35.507Z,6.93
2023-04-25T13:12:05.484Z,6.93
2023-04-25T13:14:32.672Z,6.13
2023-04-25T13:16:59.756Z,4.10
2023-04-25T13:19:29.574Z,6.60
2023-04-25T13:21:56.764Z,15.33
2023-04-25T13:24:23.741Z,3.87
2023-04-25T13:26:50.940Z,2.47
2023-04-25T13:29:18.194Z,2.70
2023-04-25T13:31:47.883Z,0.97
2023-04-25T13:34:14.972Z,2.00
2023-04-25T13:36:44.614Z,2.63
2023-04-25T13:39:14.588Z,6.80
2023-04-25T13:41:41.847Z,2.20
2023-04-25T13:44:08.866Z,3.03
2023-04-25T13:46:46.466Z,4.43
2023-04-25T13:49:14.738Z,3.77
2023-04-25T13:51:43.359Z,13.07
2023-04-25T13:54:15.769Z,6.37
2023-04-25T13:56:43.359Z,12.57
2023-04-25T13:59:15.232Z,1.23
2023-04-25T14:01:42.629Z,6.93
2023-04-25T14:04:09.947Z,4.63
2023-04-25T14:06:39.673Z,4.20
2023-04-25T14:09:08.215Z,1.13
2023-04-25T14:11:35.506Z,1.67
2023-04-25T14:14:05.102Z,12.73
2023-04-25T14:16:32.841Z,6.53
2023-04-25T14:19:00.382Z,2.00
2023-04-25T14:21:28.050Z,1.63
2023-04-25T14:23:55.917Z,9.40
2023-04-25T14:26:26.363Z,5.33
2023-04-25T14:28:58.509Z,5.33
2023-04-25T14:31:25.618Z,7.67
2023-04-25T14:33:52.970Z,3.17
2023-04-25T14:36:22.998Z,5.70
2023-04-25T14:38:50.146Z,3.53
2023-04-25T14:41:17.357Z,9.80
2023-04-25T14:43:47.026Z,8.70
2023-04-25T14:46:14.385Z,6.43
2023-04-25T14:48:46.840Z,8.17
2023-04-25T14:51:14.161Z,8.67
2023-04-25T14:53:42.507Z,15.40
2023-04-25T14:56:12.210Z,15.43
2023-04-25T14:58:41.040Z,6.73
2023-04-25T15:01:09.181Z,3.20
2023-04-25T15:03:36.789Z,3.57
2023-04-25T15:06:04.277Z,7.90
2023-04-25T15:08:37.044Z,5.90
2023-04-25T15:11:04.477Z,7.70
2023-04-25T15:13:36.407Z,10.97
2023-04-25T15:16:09.185Z,10.47
2023-04-25T15:18:38.727Z,6.00
2023-04-25T15:21:06.741Z,8.67
2023-04-25T15:23:33.868Z,5.00
2023-04-25T15:26:01.062Z,4.87
2023-04-25T15:28:32.511Z,11.60
2023-04-25T15:31:02.247Z,13.40
2023-04-25T15:33:34.297Z,11.23
2023-04-25T15:36:04.433Z,10.40
2023-04-25T15:38:34.010Z,4.23
2023-04-25T15:41:01.421Z,12.47
2023-04-25T15:43:31.068Z,6.30
2023-04-25T15:45:58.139Z,18.37
2023-04-25T15:48:25.486Z,8.10
2023-04-25T15:50:54.945Z,7.37
2023-04-25T15:53:22.087Z,3.13
2023-04-25T15:55:49.135Z,12.83
2023-04-25T15:58:20.039Z,7.97
2023-04-25T16:00:51.235Z,6.33
2023-04-25T16:03:18.729Z,11.03
2023-04-25T16:05:45.933Z,4.93
2023-04-25T16:08:13.190Z,10.30
2023-04-25T16:10:40.374Z,6.73
2023-04-25T16:13:07.745Z,10.13
2023-04-25T16:15:35.635Z,5.63
2023-04-25T16:18:03.631Z,2.30
2023-04-25T16:20:37.838Z,7.80
2023-04-25T16:23:07.358Z,2.60
2023-04-25T16:25:34.345Z,14.83
2023-04-25T16:28:01.460Z,7.10
2023-04-25T16:30:30.749Z,9.33
2023-04-25T16:32:57.993Z,5.03
2023-04-25T16:35:25.707Z,12.57
2023-04-25T16:37:55.426Z,9.30
2023-04-25T16:40:22.493Z,9.50
2023-04-25T16:42:49.582Z,1.40
2023-04-25T16:45:21.525Z,7.17
2023-04-25T16:47:48.764Z,7.73
2023-04-25T16:50:16.728Z,21.83
2023-04-25T16:52:44.591Z,2.60
2023-04-25T16:55:12.161Z,3.87
2023-04-25T16:57:43.821Z,5.10
2023-04-25T17:00:13.608Z,8.97
2023-04-25T17:02:45.831Z,4.67
2023-04-25T17:05:13.623Z,4.90
2023-04-25T17:07:40.776Z,4.57
2023-04-25T17:10:08.866Z,4.63
2023-04-25T17:12:38.407Z,9.13
2023-04-25T17:15:09.066Z,5.47
2023-04-25T17:17:38.276Z,8.10
2023-04-25T17:20:07.303Z,10.30
2023-04-25T17:22:36.360Z,6.90
2023-04-25T17:25:08.906Z,5.60
2023-04-25T17:27:37.407Z,8.30
2023-04-25T17:30:07.137Z,4.83
2023-04-25T17:32:34.717Z,4.30
2023-04-25T17:35:02.454Z,7.50
2023-04-25T17:37:35.479Z,8.07
2023-04-25T17:40:05.151Z,6.03
2023-04-25T17:42:35.196Z,2.67
2023-04-25T17:45:02.274Z,4.20
2023-04-25T17:47:32.334Z,6.33
2023-04-25T17:49:59.294Z,5.70
2023-04-25T17:52:26.618Z,5.90
2023-04-25T17:54:53.827Z,4.43
2023-04-25T17:57:25.438Z,12.63
2023-04-25T17:59:53.777Z,7.00
2023-04-25T18:02:21.940Z,2.70
2023-04-25T18:04:49.300Z,9.20
2023-04-25T18:07:18.443Z,2.53
2023-04-25T18:09:47.614Z,4.60
2023-04-25T18:12:15.333Z,4.50
2023-04-25T18:14:42.353Z,5.07
2023-04-25T18:17:09.926Z,7.00
2023-04-25T18:19:41.446Z,11.37
2023-04-25T18:22:08.439Z,9.10
2023-04-25T18:24:40.390Z,8.23
2023-04-25T18:27:07.344Z,9.70
2023-04-25T18:29:34.380Z,6.30
2023-04-25T18:32:02.267Z,4.30
2023-04-25T18:34:29.350Z,8.30
2023-04-25T18:36:59.330Z,6.13
2023-04-25T18:39:27.181Z,15.47
2023-04-25T18:42:03.299Z,9.13
2023-04-25T18:44:35.602Z,4.27
2023-04-25T18:47:07.746Z,8.33
2023-04-25T18:49:40.184Z,1.77
2023-04-25T18:52:12.813Z,11.50
2023-04-25T18:54:39.808Z,8.23
2023-04-25T18:57:06.782Z,10.70
2023-04-25T18:59:34.143Z,12.83
2023-04-25T19:02:05.365Z,10.37
2023-04-25T19:04:32.769Z,7.67
2023-04-25T19:06:59.856Z,6.77
2023-04-25T19:09:26.999Z,8.97
2023-04-25T19:11:58.468Z,3.47
2023-04-25T19:14:26.179Z,8.30
2023-04-25T19:16:54.043Z,4.20
2023-04-25T19:19:21.014Z,12.20
2023-04-25T19:21:50.898Z,12.10
2023-04-25T19:24:17.825Z,8.87
2023-04-25T19:26:46.889Z,8.33
2023-04-25T19:29:17.230Z,10.97
2023-04-25T19:31:45.801Z,10.00
2023-04-25T19:34:16.493Z,9.07
2023-04-25T19:36:45.809Z,5.07
2023-04-25T19:39:13.059Z,7.20
2023-04-25T19:41:40.274Z,7.00
2023-04-25T19:44:10.131Z,9.50
2023-04-25T19:46:37.994Z,10.33
2023-04-25T19:49:08.936Z,13.30
2023-04-25T19:51:38.673Z,7.63
2023-04-25T19:54:08.056Z,12.43
2023-04-25T19:56:35.109Z,4.90
2023-04-25T19:59:02.024Z,6.00
2023-04-25T20:01:29.457Z,5.30
2023-04-25T20:03:56.754Z,6.70
2023-04-25T20:06:23.906Z,6.73
2023-04-25T20:08:53.878Z,7.47
2023-04-25T20:11:21.862Z,9.30
2023-04-25T20:13:48.868Z,10.13
2023-04-25T20:16:19.873Z,8.33
2023-04-25T20:18:50.541Z,13.43
2023-04-25T20:21:20.423Z,3.60
2023-04-25T20:23:49.976Z,11.43
2023-04-25T20:26:19.676Z,10.53
2023-04-25T20:28:51.386Z,7.40
2023-04-25T20:31:18.783Z,3.50
2023-04-25T20:33:46.372Z,13.17
2023-04-25T20:36:15.611Z,6.97
2023-04-25T20:38:42.547Z,12.70
2023-04-25T20:41:12.284Z,10.07
2023-04-25T20:43:40.372Z,4.10
2023-04-25T20:46:07.373Z,10.50
2023-04-25T20:48:36.440Z,7.53
2023-04-25T20:51:04.025Z,11.43
2023-04-25T20:53:31.095Z,4.17
2023-04-25T20:56:01.068Z,9.83
2023-04-25T20:58:28.749Z,4.47
2023-04-25T21:00:56.562Z,10.10
2023-04-25T21:03:26.037Z,5.50
2023-04-25T21:05:53.184Z,7.53
2023-04-25T21:08:25.774Z,7.47
2023-04-25T21:11:02.570Z,5.83
2023-04-25T21:13:29.818Z,4.73
2023-04-25T21:16:00.899Z,20.90
2023-04-25T21:21:22.805Z,11.93
2023-04-25T21:24:14.606Z,4.23
2023-04-25T21:26:44.453Z,9.93
2023-04-25T21:29:14.254Z,6.13
2023-04-25T21:31:42.732Z,3.03
2023-04-25T21:34:09.993Z,4.00
2023-04-25T21:36:37.612Z,6.50
2023-04-25T21:39:08.291Z,5.90
2023-04-25T21:41:41.385Z,4.70
2023-04-25T21:44:18.067Z,13.03
2023-04-25T21:46:49.855Z,6.10
2023-04-25T21:49:19.401Z,8.50
2023-04-25T21:51:57.507Z,8.77
2023-04-25T21:54:35.615Z,3.13
2023-04-25T21:57:07.552Z,21.53
2023-04-25T21:59:37.575Z,4.27
2023-04-25T22:02:09.325Z,5.73
2023-04-25T22:04:37.658Z,3.57
2023-04-25T22:07:05.502Z,8.07
2023-04-25T22:09:51.342Z,7.40
2023-04-25T22:12:28.699Z,7.47
2023-04-25T22:14:58.855Z,1.80
2023-04-25T22:17:32.151Z,14.40
2023-04-25T22:20:16.554Z,11.83
2023-04-25T22:22:46.672Z,4.73
2023-04-25T22:25:17.195Z,5.77
2023-04-25T22:27:48.349Z,9.57
2023-04-25T22:30:23.735Z,4.67
2023-04-25T22:32:51.209Z,5.23
2023-04-25T22:35:24.562Z,4.73
2023-04-25T22:38:01.760Z,5.40
2023-04-25T22:40:29.409Z,9.00
2023-04-25T22:43:02.125Z,4.90
2023-04-25T22:45:29.894Z,6.57
2023-04-25T22:48:02.129Z,11.40
2023-04-25T22:50:30.240Z,6.57
2023-04-25T22:52:57.595Z,8.93
2023-04-25T22:55:31.254Z,6.10
2023-04-25T22:58:07.396Z,13.67
2023-04-25T23:00:35.598Z,18.47
2023-04-25T23:03:04.528Z,5.30
2023-04-25T23:05:41.876Z,5.50
2023-04-25T23:08:12.969Z,11.00
2023-04-25T23:10:58.531Z,9.57
2023-04-25T23:13:45.561Z,9.70
2023-04-25T23:16:28.004Z,6.07
2023-04-25T23:18:56.051Z,12.50
2023-04-25T23:21:42.702Z,8.63
2023-04-25T23:24:27.278Z,7.37
2023-04-25T23:27:05.326Z,11.23
2023-04-25T23:29:47.000Z,9.37
2023-04-25T23:32:15.160Z,21.17
2023-04-25T23:34:47.214Z,21.67
2023-04-25T23:37:20.564Z,14.30
2023-04-25T23:40:19.788Z,12.40
2023-04-25T23:42:53.976Z,17.27
2023-04-25T23:45:49.872Z,9.10
2023-04-25T23:48:20.681Z,3.43
2023-04-25T23:50:53.065Z,14.50
2023-04-25T23:53:45.637Z,11.80
2023-04-25T23:56:21.954Z,10.97
2023-04-25T23:58:54.015Z,8.20
